createdAt,value
2022-11-14T00:00:15.554Z,18.80
2022-11-14T00:03:17.793Z,19.20
2022-11-14T00:06:20.589Z,19.23
2022-11-14T00:09:26.971Z,19.20
2022-11-14T00:12:29.253Z,19.60
2022-11-14T00:15:31.415Z,18.27
2022-11-14T00:18:33.786Z,18.73
2022-11-14T00:21:35.905Z,18.60
2022-11-14T00:24:38.112Z,19.33
2022-11-14T00:27:40.218Z,19.27
2022-11-14T00:30:47.374Z,18.15
2022-11-14T00:33:49.649Z,19.07
2022-11-14T00:36:51.845Z,18.43
2022-11-14T00:39:54.119Z,17.33
2022-11-14T00:42:56.314Z,17.10
2022-11-14T00:45:58.784Z,18.55
2022-11-14T00:49:01.030Z,18.27
2022-11-14T00:52:03.176Z,17.70
2022-11-14T00:55:06.028Z,17.77
2022-11-14T00:58:08.478Z,18.02
2022-11-14T01:01:10.837Z,18.70
2022-11-14T01:04:13.135Z,18.87
2022-11-14T01:07:15.281Z,18.23
2022-11-14T01:10:18.221Z,18.02
2022-11-14T01:13:20.379Z,18.30
2022-11-14T01:16:23.734Z,18.33
2022-11-14T01:19:25.872Z,17.73
2022-11-14T01:22:30.689Z,18.43
2022-11-14T01:25:34.915Z,19.05
2022-11-14T01:28:37.221Z,18.12
2022-11-14T01:31:39.529Z,18.23
2022-11-14T01:34:41.797Z,19.33
2022-11-14T01:37:43.944Z,18.90
2022-11-14T01:40:46.691Z,19.85
2022-11-14T01:43:49.684Z,19.92
2022-11-14T01:46:57.137Z,19.15
2022-11-14T01:50:02.779Z,18.73
2022-11-14T01:53:04.953Z,18.80
2022-11-14T01:56:10.054Z,19.62
2022-11-14T01:59:16.093Z,19.15
2022-11-14T02:02:23.751Z,18.17
2022-11-14T02:05:26.408Z,19.53
2022-11-14T02:08:29.981Z,18.33
2022-11-14T02:11:38.117Z,19.80
2022-11-14T02:14:41.727Z,18.55
2022-11-14T02:17:44.681Z,19.70
2022-11-14T02:20:46.932Z,18.53
2022-11-14T02:23:49.377Z,16.67
2022-11-14T02:26:51.632Z,18.20
2022-11-14T02:29:53.899Z,18.10
2022-11-14T02:33:11.937Z,18.35
2022-11-14T02:36:14.217Z,18.30
2022-11-14T02:39:16.418Z,18.17
2022-11-14T02:42:18.555Z,18.17
2022-11-14T02:45:21.089Z,17.30
2022-11-14T02:48:23.349Z,17.35
2022-11-14T02:51:25.641Z,17.17
2022-11-14T02:54:27.821Z,17.17
2022-11-14T02:57:30.103Z,16.92
2022-11-14T03:00:32.373Z,16.00
2022-11-14T03:03:34.654Z,18.60
2022-11-14T03:06:37.011Z,17.93
2022-11-14T03:09:39.410Z,17.43
2022-11-14T03:12:41.612Z,15.63
2022-11-14T03:15:43.782Z,17.27
2022-11-14T03:18:46.070Z,17.70
2022-11-14T03:21:48.298Z,18.63
2022-11-14T03:24:50.461Z,18.60
2022-11-14T03:27:52.733Z,18.52
2022-11-14T03:30:55.218Z,18.75
2022-11-14T03:33:57.417Z,16.05
2022-11-14T03:37:00.660Z,12.93
2022-11-14T03:40:03.420Z,17.30
2022-11-14T03:43:05.692Z,18.95
2022-11-14T03:46:08.124Z,20.15
2022-11-14T03:49:10.365Z,19.62
2022-11-14T03:52:12.620Z,18.57
2022-11-14T03:55:14.936Z,18.37
2022-11-14T03:58:17.149Z,19.37
2022-11-14T04:01:19.421Z,18.77
2022-11-14T04:04:21.874Z,19.45
2022-11-14T04:07:24.102Z,12.97
2022-11-14T04:10:26.791Z,16.13
2022-11-14T04:13:29.034Z,18.30
2022-11-14T04:16:31.180Z,18.20
2022-11-14T04:19:33.557Z,19.10
2022-11-14T04:22:35.836Z,18.53
2022-11-14T04:25:38.006Z,20.17
2022-11-14T04:28:40.140Z,19.05
2022-11-14T04:31:42.417Z,19.15
2022-11-14T04:34:45.153Z,19.77
2022-11-14T04:37:47.707Z,18.47
2022-11-14T04:40:51.273Z,17.40
2022-11-14T04:43:53.445Z,17.67
2022-11-14T04:46:55.883Z,18.05
2022-11-14T04:49:58.041Z,18.87
2022-11-14T04:53:00.191Z,19.20
2022-11-14T04:56:02.594Z,17.67
2022-11-14T04:59:04.827Z,17.12
2022-11-14T05:02:07.024Z,17.75
2022-11-14T05:05:09.639Z,16.90
2022-11-14T05:08:11.912Z,17.60
2022-11-14T05:11:15.793Z,16.07
2022-11-14T05:14:18.077Z,14.32
2022-11-14T05:17:20.317Z,13.27
2022-11-14T05:20:24.434Z,15.98
2022-11-14T05:23:27.488Z,16.83
2022-11-14T05:26:29.638Z,15.40
2022-11-14T05:29:31.988Z,15.95
2022-11-14T05:32:34.285Z,16.17
2022-11-14T05:35:36.513Z,14.77
2022-11-14T05:38:38.970Z,15.73
2022-11-14T05:41:41.893Z,15.40
2022-11-14T05:44:44.160Z,15.48
2022-11-14T05:47:46.304Z,15.10
2022-11-14T05:50:48.603Z,15.40
2022-11-14T05:53:50.970Z,16.30
2022-11-14T05:56:53.225Z,16.50
2022-11-14T05:59:56.787Z,15.27
2022-11-14T06:02:59.696Z,16.08
2022-11-14T06:06:03.848Z,15.80
2022-11-14T06:09:06.019Z,16.27
2022-11-14T06:12:08.332Z,15.00
2022-11-14T06:15:10.773Z,15.10
2022-11-14T06:18:12.990Z,14.73
2022-11-14T06:21:19.095Z,13.35
2022-11-14T06:24:21.328Z,14.93
2022-11-14T06:27:23.609Z,15.63
2022-11-14T06:30:25.961Z,15.45
2022-11-14T06:33:29.651Z,15.40
2022-11-14T06:36:32.432Z,10.82
2022-11-14T06:39:34.669Z,15.03
2022-11-14T06:42:36.894Z,17.07
2022-11-14T06:45:39.080Z,16.23
2022-11-14T06:48:43.268Z,14.50
2022-11-14T06:51:45.595Z,15.75
2022-11-14T06:54:47.790Z,11.17
2022-11-14T06:57:54.870Z,13.67
2022-11-14T07:00:57.554Z,12.70
2022-11-14T07:04:00.816Z,13.98
2022-11-14T07:07:03.222Z,13.05
2022-11-14T07:10:05.823Z,11.97
2022-11-14T07:13:09.788Z,13.83
2022-11-14T07:16:12.054Z,13.23
2022-11-14T07:19:14.258Z,13.55
2022-11-14T07:22:16.582Z,14.95
2022-11-14T07:25:18.761Z,13.93
2022-11-14T07:28:21.316Z,11.80
2022-11-14T07:31:23.632Z,10.30
2022-11-14T07:34:25.831Z,12.45
2022-11-14T07:37:27.992Z,13.63
2022-11-14T07:40:30.735Z,11.03
2022-11-14T07:43:33.064Z,13.07
2022-11-14T07:46:35.334Z,14.32
2022-11-14T07:49:37.791Z,10.88
2022-11-14T07:52:40.041Z,11.67
2022-11-14T07:55:42.342Z,11.40
2022-11-14T07:58:44.900Z,12.75
2022-11-14T08:01:47.087Z,12.80
2022-11-14T08:04:49.225Z,13.40
2022-11-14T08:07:52.409Z,12.67
2022-11-14T08:10:58.055Z,13.43
2022-11-14T08:14:00.254Z,12.40
2022-11-14T08:17:02.419Z,13.73
2022-11-14T08:20:08.867Z,13.65
2022-11-14T08:23:12.093Z,13.50
2022-11-14T08:26:14.249Z,11.73
2022-11-14T08:29:16.576Z,13.05
2022-11-14T08:32:19.667Z,12.10
2022-11-14T08:35:23.028Z,12.82
2022-11-14T08:38:25.214Z,13.80
2022-11-14T08:41:28.277Z,13.37
2022-11-14T08:44:30.409Z,13.05
2022-11-14T08:47:32.640Z,13.38
2022-11-14T08:50:35.176Z,13.62
2022-11-14T08:53:37.565Z,12.60
2022-11-14T08:56:39.853Z,14.37
2022-11-14T08:59:42.695Z,13.95
2022-11-14T09:02:45.205Z,14.00
2022-11-14T09:05:52.950Z,13.98
2022-11-14T09:08:55.322Z,17.33
2022-11-14T09:11:57.858Z,12.67
2022-11-14T09:15:00.345Z,13.48
2022-11-14T09:18:02.908Z,13.82
2022-11-14T09:21:07.813Z,13.75
2022-11-14T09:24:10.171Z,14.97
2022-11-14T09:27:12.599Z,15.40
2022-11-14T09:30:15.483Z,12.37
2022-11-14T09:33:17.807Z,15.07
2022-11-14T09:36:20.125Z,13.13
2022-11-14T09:39:22.414Z,14.53
2022-11-14T09:42:37.540Z,13.60
2022-11-14T09:45:48.532Z,13.13
2022-11-14T09:48:53.069Z,13.02
2022-11-14T09:52:03.589Z,11.82
2022-11-14T09:55:17.829Z,12.07
2022-11-14T09:58:21.398Z,13.40
2022-11-14T10:02:20.865Z,12.52
2022-11-14T10:05:35.005Z,13.07
2022-11-14T10:08:45.618Z,11.65
2022-11-14T10:11:56.401Z,10.20
2022-11-14T10:15:21.054Z,11.63
2022-11-14T10:18:41.963Z,13.80
2022-11-14T10:21:53.595Z,13.35
2022-11-14T10:25:17.296Z,13.13
2022-11-14T10:28:40.455Z,12.80
2022-11-14T10:32:04.813Z,12.77
2022-11-14T10:35:23.911Z,12.60
2022-11-14T10:38:54.504Z,10.02
2022-11-14T10:42:07.504Z,12.45
2022-11-14T10:45:31.821Z,12.07
2022-11-14T10:48:37.814Z,11.77
2022-11-14T10:51:44.262Z,12.88
2022-11-14T10:54:52.206Z,12.85
2022-11-14T10:57:54.471Z,13.40
2022-11-14T11:01:19.393Z,12.80
2022-11-14T11:04:38.882Z,13.23
2022-11-14T11:08:21.465Z,13.10
2022-11-14T11:11:32.803Z,13.35
2022-11-14T11:14:35.968Z,13.43
2022-11-14T11:17:42.924Z,13.43
2022-11-14T11:21:05.653Z,12.47
2022-11-14T11:24:09.494Z,11.98
2022-11-14T11:27:23.149Z,10.98
2022-11-14T11:30:25.383Z,12.00
2022-11-14T11:33:30.925Z,12.03
2022-11-14T11:36:37.683Z,11.40
2022-11-14T11:39:51.218Z,12.35
2022-11-14T11:46:48.361Z,11.25
2022-11-14T11:49:54.530Z,11.97
2022-11-14T11:53:11.101Z,11.50
2022-11-14T11:56:20.123Z,12.07
2022-11-14T11:59:34.049Z,12.35
2022-11-14T12:02:46.513Z,11.90
2022-11-14T12:06:14.531Z,11.27
2022-11-14T12:09:55.723Z,11.67
2022-11-14T12:13:22.554Z,11.02
2022-11-14T12:16:52.644Z,12.80
2022-11-14T12:20:19.663Z,12.88
2022-11-14T12:23:43.916Z,13.10
2022-11-14T12:26:52.115Z,12.37
2022-11-14T12:30:12.085Z,13.32
2022-11-14T12:33:32.861Z,15.23
2022-11-14T12:36:35.592Z,12.95
2022-11-14T12:39:38.057Z,12.93
2022-11-14T12:42:49.676Z,13.77
2022-11-14T12:45:51.779Z,13.52
2022-11-14T12:48:54.405Z,14.70
2022-11-14T12:51:56.614Z,14.63
2022-11-14T12:54:58.894Z,13.83
2022-11-14T12:58:10.718Z,15.13
2022-11-14T13:01:41.923Z,15.15
2022-11-14T13:05:24.503Z,15.10
2022-11-14T13:09:10.513Z,15.25
2022-11-14T13:12:44.987Z,16.40
2022-11-14T13:16:17.841Z,15.37
2022-11-14T13:19:41.116Z,14.82
2022-11-14T13:22:45.933Z,15.63
2022-11-14T13:25:48.157Z,13.57
2022-11-14T13:28:52.081Z,15.00
2022-11-14T13:31:54.499Z,14.40
2022-11-14T13:35:05.381Z,14.65
2022-11-14T13:38:40.639Z,13.75
2022-11-14T13:42:25.309Z,14.93
2022-11-14T13:45:30.365Z,12.73
2022-11-14T13:48:53.654Z,14.87
2022-11-14T13:51:56.274Z,15.57
2022-11-14T13:55:00.321Z,17.05
2022-11-14T13:58:28.160Z,17.65
2022-11-14T14:01:30.370Z,17.83
2022-11-14T14:05:07.843Z,18.40
2022-11-14T14:08:12.746Z,17.75
2022-11-14T14:11:27.340Z,17.90
2022-11-14T14:14:48.301Z,17.02
2022-11-14T14:18:09.131Z,17.63
2022-11-14T14:21:36.009Z,18.00
2022-11-14T14:24:53.076Z,17.37
2022-11-14T14:28:06.319Z,15.73
2022-11-14T14:31:13.257Z,14.00
2022-11-14T14:34:29.594Z,15.47
2022-11-14T14:37:32.642Z,13.57
2022-11-14T14:40:39.253Z,16.02
2022-11-14T14:43:44.119Z,16.20
2022-11-14T14:46:46.435Z,15.98
2022-11-14T14:49:48.754Z,17.93
2022-11-14T14:53:03.922Z,16.87
2022-11-14T14:56:17.940Z,15.90
2022-11-14T14:59:24.280Z,18.23
2022-11-14T15:02:28.146Z,18.17
2022-11-14T15:05:31.406Z,18.03
2022-11-14T15:08:38.771Z,18.00
2022-11-14T15:11:44.303Z,17.05
2022-11-14T15:14:47.915Z,16.10
2022-11-14T15:17:50.976Z,17.02
2022-11-14T15:21:29.622Z,18.03
2022-11-14T15:24:32.288Z,19.30
2022-11-14T15:27:34.655Z,17.40
2022-11-14T15:30:37.645Z,17.23
2022-11-14T15:33:39.916Z,16.77
2022-11-14T15:37:07.257Z,16.63
2022-11-14T15:40:21.001Z,17.60
2022-11-14T15:43:53.616Z,18.75
2022-11-14T15:46:55.812Z,19.62
2022-11-14T15:50:01.092Z,18.37
2022-11-14T15:53:30.721Z,17.90
2022-11-14T15:56:33.024Z,17.53
2022-11-14T15:59:35.389Z,16.67
2022-11-14T16:02:46.363Z,17.58
2022-11-14T16:05:48.827Z,17.92
2022-11-14T16:08:51.284Z,17.93
2022-11-14T16:11:53.653Z,17.13
2022-11-14T16:14:55.832Z,17.42
2022-11-14T16:17:58.092Z,16.73
2022-11-14T16:21:00.480Z,15.07
2022-11-14T16:24:02.837Z,16.33
2022-11-14T16:27:05.610Z,16.03
2022-11-14T16:30:12.012Z,16.17
2022-11-14T16:33:15.814Z,16.90
2022-11-14T16:36:22.037Z,16.55
2022-11-14T16:39:24.278Z,19.70
2022-11-14T16:42:26.551Z,18.53
2022-11-14T16:45:28.916Z,19.98
2022-11-14T16:48:31.176Z,17.35
2022-11-14T16:51:51.280Z,18.12
2022-11-14T16:54:54.384Z,17.83
2022-11-14T16:57:56.744Z,18.70
2022-11-14T17:00:59.151Z,21.73
2022-11-14T17:04:01.793Z,21.92
2022-11-14T17:07:05.304Z,21.80
2022-11-14T17:10:10.492Z,20.53
2022-11-14T17:13:16.565Z,19.93
2022-11-14T17:16:21.315Z,19.50
2022-11-14T17:19:23.864Z,17.50
2022-11-14T17:22:26.049Z,16.58
2022-11-14T17:25:30.115Z,20.13
2022-11-14T17:28:34.173Z,17.67
2022-11-14T17:31:44.433Z,16.58
2022-11-14T17:34:49.045Z,16.27
2022-11-14T17:37:52.307Z,17.70
2022-11-14T17:40:59.196Z,18.90
2022-11-14T17:44:03.700Z,12.13
2022-11-14T17:47:06.092Z,16.42
2022-11-14T17:50:10.356Z,15.90
2022-11-14T17:53:12.922Z,11.43
2022-11-14T17:56:18.153Z,15.70
2022-11-14T17:59:21.947Z,17.00
2022-11-14T18:02:24.718Z,17.85
2022-11-14T18:05:27.290Z,17.40
2022-11-14T18:08:30.587Z,16.02
2022-11-14T18:11:34.894Z,17.90
2022-11-14T18:14:37.402Z,16.87
2022-11-14T18:17:40.036Z,16.80
2022-11-14T18:20:43.401Z,17.10
2022-11-14T18:23:52.232Z,20.08
2022-11-14T18:26:55.909Z,18.37
2022-11-14T18:30:08.385Z,17.13
2022-11-14T18:33:21.175Z,18.83
2022-11-14T18:36:25.768Z,19.42
2022-11-14T18:39:29.221Z,17.42
2022-11-14T18:42:32.429Z,19.63
2022-11-14T18:45:35.642Z,19.50
2022-11-14T18:48:39.502Z,18.15
2022-11-14T18:51:44.914Z,19.08
2022-11-14T18:54:47.270Z,19.00
2022-11-14T18:57:50.426Z,17.90
2022-11-14T19:00:53.531Z,20.20
2022-11-14T19:03:58.205Z,19.67
2022-11-14T19:07:01.378Z,20.55
2022-11-14T19:10:04.039Z,20.75
2022-11-14T19:13:06.824Z,21.43
2022-11-14T19:16:09.153Z,18.03
2022-11-14T19:19:12.722Z,18.35
2022-11-14T19:22:16.178Z,18.95
2022-11-14T19:25:18.502Z,19.58
2022-11-14T19:28:25.503Z,20.20
2022-11-14T19:31:27.782Z,20.00
2022-11-14T19:34:30.584Z,20.67
2022-11-14T19:37:33.434Z,20.23
2022-11-14T19:40:40.227Z,19.05
2022-11-14T19:43:46.432Z,19.87
2022-11-14T19:46:49.272Z,20.57
2022-11-14T19:49:51.930Z,19.85
2022-11-14T19:52:54.673Z,19.80
2022-11-14T19:56:03.379Z,19.90
2022-11-14T19:59:11.030Z,18.67
2022-11-14T20:02:15.597Z,19.00
2022-11-14T20:05:18.708Z,19.67
2022-11-14T20:08:21.381Z,20.67
2022-11-14T20:11:26.893Z,20.52
2022-11-14T20:14:29.534Z,21.27
2022-11-14T20:17:33.159Z,18.13
2022-11-14T20:20:36.118Z,19.42
2022-11-14T20:23:38.523Z,19.98
2022-11-14T20:26:41.073Z,20.17
2022-11-14T20:29:43.831Z,21.30
2022-11-14T20:32:46.444Z,21.57
2022-11-14T20:35:57.455Z,20.62
2022-11-14T20:39:00.580Z,19.77
2022-11-14T20:42:03.212Z,20.52
2022-11-14T20:45:06.333Z,19.60
2022-11-14T20:48:09.072Z,20.03
2022-11-14T20:51:20.579Z,19.92
2022-11-14T20:54:23.420Z,19.35
2022-11-14T20:57:25.655Z,18.90
2022-11-14T21:00:29.504Z,19.23
2022-11-14T21:03:33.532Z,19.13
2022-11-14T21:06:36.489Z,18.12
2022-11-14T21:09:38.878Z,19.00
2022-11-14T21:12:44.473Z,19.00
2022-11-14T21:15:49.239Z,18.73
2022-11-14T21:18:55.396Z,18.60
2022-11-14T21:21:57.621Z,18.80
2022-11-14T21:25:00.731Z,20.15
2022-11-14T21:28:02.936Z,20.02
2022-11-14T21:31:42.269Z,20.33
2022-11-14T21:34:44.446Z,19.03
2022-11-14T21:37:46.619Z,19.80
2022-11-14T21:40:56.099Z,19.85
2022-11-14T21:44:01.136Z,20.35
2022-11-14T21:47:03.384Z,17.83
2022-11-14T21:50:06.196Z,20.13
2022-11-14T21:53:16.293Z,19.58
2022-11-14T21:56:23.146Z,19.30
2022-11-14T21:59:28.316Z,18.50
2022-11-14T22:02:48.980Z,19.07
2022-11-14T22:05:57.845Z,19.93
2022-11-14T22:08:59.993Z,19.75
2022-11-14T22:12:03.533Z,19.17
2022-11-14T22:15:06.183Z,18.25
2022-11-14T22:18:08.381Z,19.67
2022-11-14T22:21:11.040Z,18.03
2022-11-14T22:24:13.176Z,17.25
2022-11-14T22:27:15.355Z,18.75
2022-11-14T22:30:17.819Z,19.35
2022-11-14T22:33:20.043Z,18.97
2022-11-14T22:36:24.869Z,17.93
2022-11-14T22:39:27.019Z,18.55
2022-11-14T22:42:29.256Z,19.55
2022-11-14T22:45:31.364Z,18.83
2022-11-14T22:48:34.510Z,17.27
2022-11-14T22:51:36.793Z,18.07
2022-11-14T22:54:38.942Z,18.08
2022-11-14T22:57:41.054Z,18.12
2022-11-14T23:00:43.344Z,19.58
2022-11-14T23:03:48.283Z,17.80
2022-11-14T23:06:50.846Z,19.00
2022-11-14T23:09:53.355Z,19.17
2022-11-14T23:12:55.763Z,19.98
2022-11-14T23:15:58.197Z,17.98
2022-11-14T23:19:02.934Z,18.77
2022-11-14T23:22:05.379Z,19.60
2022-11-14T23:25:08.171Z,19.12
2022-11-14T23:28:10.574Z,18.08
2022-11-14T23:31:13.184Z,18.23
2022-11-14T23:34:15.453Z,19.17
2022-11-14T23:37:17.749Z,18.57
2022-11-14T23:40:20.696Z,16.98
2022-11-14T23:43:22.992Z,18.35
2022-11-14T23:46:25.371Z,17.80
2022-11-14T23:49:27.896Z,17.40
2022-11-14T23:52:30.375Z,17.93
2022-11-14T23:55:34.084Z,18.05
2022-11-14T23:58:36.496Z,17.48
